sensor_id;sensor_type;location;lat;lon;timestamp;temperature;humidity
75489;HTU21D;64069;46.396;48.102;2023-03-25T00:01:02;7.88;83.95
75489;HTU21D;64069;46.396;48.102;2023-03-25T00:03:35;7.86;84.03
75489;HTU21D;64069;46.396;48.102;2023-03-25T00:06:07;7.87;83.97
75489;HTU21D;64069;46.396;48.102;2023-03-25T00:08:33;7.88;83.94
75489;HTU21D;64069;46.396;48.102;2023-03-25T00:11:01;7.90;83.96
75489;HTU21D;64069;46.396;48.102;2023-03-25T00:13:29;7.90;83.91
75489;HTU21D;64069;46.396;48.102;2023-03-25T00:16:00;7.83;83.87
75489;HTU21D;64069;46.396;48.102;2023-03-25T00:18:27;7.77;83.95
75489;HTU21D;64069;46.396;48.102;2023-03-25T00:20:54;7.72;84.00
75489;HTU21D;64069;46.396;48.102;2023-03-25T00:23:21;7.72;84.07
75489;HTU21D;64069;46.396;48.102;2023-03-25T00:25:48;7.70;84.08
75489;HTU21D;64069;46.396;48.102;2023-03-25T00:28:15;7.69;84.08
75489;HTU21D;64069;46.396;48.102;2023-03-25T00:30:43;7.65;84.13
75489;HTU21D;64069;46.396;48.102;2023-03-25T00:33:09;7.65;84.18
75489;HTU21D;64069;46.396;48.102;2023-03-25T00:35:39;7.63;84.13
75489;HTU21D;64069;46.396;48.102;2023-03-25T00:38:13;7.60;84.07
75489;HTU21D;64069;46.396;48.102;2023-03-25T00:40:40;7.56;84.17
75489;HTU21D;64069;46.396;48.102;2023-03-25T00:43:06;7.52;84.29
75489;HTU21D;64069;46.396;48.102;2023-03-25T00:45:32;7.45;84.37
75489;HTU21D;64069;46.396;48.102;2023-03-25T00:47:58;7.37;84.42
75489;HTU21D;64069;46.396;48.102;2023-03-25T00:50:25;7.27;84.46
75489;HTU21D;64069;46.396;48.102;2023-03-25T00:52:51;7.17;84.52
75489;HTU21D;64069;46.396;48.102;2023-03-25T00:55:20;7.10;84.64
75489;HTU21D;64069;46.396;48.102;2023-03-25T00:57:46;7.04;84.74
75489;HTU21D;64069;46.396;48.102;2023-03-25T01:00:15;7.05;84.85
75489;HTU21D;64069;46.396;48.102;2023-03-25T01:02:41;7.07;84.74
75489;HTU21D;64069;46.396;48.102;2023-03-25T01:05:10;7.00;84.79
75489;HTU21D;64069;46.396;48.102;2023-03-25T01:07:38;6.94;84.83
75489;HTU21D;64069;46.396;48.102;2023-03-25T01:10:05;6.81;84.84
75489;HTU21D;64069;46.396;48.102;2023-03-25T01:12:31;6.69;84.92
75489;HTU21D;64069;46.396;48.102;2023-03-25T01:14:57;6.53;85.01
75489;HTU21D;64069;46.396;48.102;2023-03-25T01:17:23;6.30;85.13
75489;HTU21D;64069;46.396;48.102;2023-03-25T01:19:49;6.07;85.22
75489;HTU21D;64069;46.396;48.102;2023-03-25T01:22:16;5.89;85.32
75489;HTU21D;64069;46.396;48.102;2023-03-25T01:24:42;5.71;85.41
75489;HTU21D;64069;46.396;48.102;2023-03-25T01:27:08;5.55;85.47
75489;HTU21D;64069;46.396;48.102;2023-03-25T01:29:34;5.39;85.61
75489;HTU21D;64069;46.396;48.102;2023-03-25T01:32:00;5.22;85.66
75489;HTU21D;64069;46.396;48.102;2023-03-25T01:34:26;5.09;85.62
75489;HTU21D;64069;46.396;48.102;2023-03-25T01:36:52;5.04;85.64
75489;HTU21D;64069;46.396;48.102;2023-03-25T01:39:20;5.01;85.55
75489;HTU21D;64069;46.396;48.102;2023-03-25T01:41:48;5.01;85.45
75489;HTU21D;64069;46.396;48.102;2023-03-25T01:46:44;4.96;85.28
75489;HTU21D;64069;46.396;48.102;2023-03-25T01:51:48;4.93;85.14
75489;HTU21D;64069;46.396;48.102;2023-03-25T01:54:15;4.87;85.15
75489;HTU21D;64069;46.396;48.102;2023-03-25T01:56:44;4.81;85.21
75489;HTU21D;64069;46.396;48.102;2023-03-25T01:59:13;4.75;85.22
75489;HTU21D;64069;46.396;48.102;2023-03-25T02:01:45;4.66;85.34
75489;HTU21D;64069;46.396;48.102;2023-03-25T02:04:13;4.57;85.57
75489;HTU21D;64069;46.396;48.102;2023-03-25T02:06:47;4.47;85.61
75489;HTU21D;64069;46.396;48.102;2023-03-25T02:09:18;4.43;85.58
75489;HTU21D;64069;46.396;48.102;2023-03-25T02:11:44;4.35;85.58
75489;HTU21D;64069;46.396;48.102;2023-03-25T02:14:17;4.27;85.90
75489;HTU21D;64069;46.396;48.102;2023-03-25T02:30:47;3.89;85.75
75489;HTU21D;64069;46.396;48.102;2023-03-25T02:38:51;3.88;85.49
75489;HTU21D;64069;46.396;48.102;2023-03-25T02:41:28;3.89;85.37
75489;HTU21D;64069;46.396;48.102;2023-03-25T02:44:06;3.91;85.32
75489;HTU21D;64069;46.396;48.102;2023-03-25T02:46:37;3.95;85.29
75489;HTU21D;64069;46.396;48.102;2023-03-25T02:49:18;4.01;85.24
75489;HTU21D;64069;46.396;48.102;2023-03-25T02:52:22;4.09;85.23
75489;HTU21D;64069;46.396;48.102;2023-03-25T02:54:50;4.15;84.95
75489;HTU21D;64069;46.396;48.102;2023-03-25T02:57:18;4.14;84.95
75489;HTU21D;64069;46.396;48.102;2023-03-25T02:59:47;4.16;84.96
75489;HTU21D;64069;46.396;48.102;2023-03-25T03:02:16;4.21;84.96
75489;HTU21D;64069;46.396;48.102;2023-03-25T03:04:52;4.30;84.90
75489;HTU21D;64069;46.396;48.102;2023-03-25T03:07:31;4.43;84.84
75489;HTU21D;64069;46.396;48.102;2023-03-25T03:19:03;5.31;83.49
75489;HTU21D;64069;46.396;48.102;2023-03-25T03:21:43;5.57;83.00
75489;HTU21D;64069;46.396;48.102;2023-03-25T03:24:30;5.81;82.65
75489;HTU21D;64069;46.396;48.102;2023-03-25T03:35:57;6.86;81.37
75489;HTU21D;64069;46.396;48.102;2023-03-25T03:38:29;7.08;81.14
75489;HTU21D;64069;46.396;48.102;2023-03-25T03:41:01;7.28;80.85
75489;HTU21D;64069;46.396;48.102;2023-03-25T03:43:37;7.50;80.62
75489;HTU21D;64069;46.396;48.102;2023-03-25T03:46:09;7.86;80.11
75489;HTU21D;64069;46.396;48.102;2023-03-25T03:48:37;8.16;79.62
75489;HTU21D;64069;46.396;48.102;2023-03-25T03:51:09;8.44;79.28
75489;HTU21D;64069;46.396;48.102;2023-03-25T03:53:42;8.74;78.96
75489;HTU21D;64069;46.396;48.102;2023-03-25T03:56:19;9.17;78.74
75489;HTU21D;64069;46.396;48.102;2023-03-25T03:58:50;9.63;77.91
75489;HTU21D;64069;46.396;48.102;2023-03-25T04:01:31;9.98;77.78
75489;HTU21D;64069;46.396;48.102;2023-03-25T04:04:02;10.43;77.02
75489;HTU21D;64069;46.396;48.102;2023-03-25T04:06:34;10.67;76.72
75489;HTU21D;64069;46.396;48.102;2023-03-25T04:09:22;11.09;76.52
75489;HTU21D;64069;46.396;48.102;2023-03-25T04:11:55;11.73;75.60
75489;HTU21D;64069;46.396;48.102;2023-03-25T04:14:23;12.06;74.81
75489;HTU21D;64069;46.396;48.102;2023-03-25T04:16:50;12.34;74.59
75489;HTU21D;64069;46.396;48.102;2023-03-25T04:19:18;12.72;74.06
75489;HTU21D;64069;46.396;48.102;2023-03-25T04:21:45;13.22;73.41
75489;HTU21D;64069;46.396;48.102;2023-03-25T04:24:13;13.62;72.58
75489;HTU21D;64069;46.396;48.102;2023-03-25T04:26:41;13.83;72.02
75489;HTU21D;64069;46.396;48.102;2023-03-25T04:29:08;13.92;71.54
75489;HTU21D;64069;46.396;48.102;2023-03-25T04:31:35;13.97;71.42
75489;HTU21D;64069;46.396;48.102;2023-03-25T04:34:02;14.22;70.91
75489;HTU21D;64069;46.396;48.102;2023-03-25T04:36:29;14.45;70.29
75489;HTU21D;64069;46.396;48.102;2023-03-25T04:39:02;14.65;69.94
75489;HTU21D;64069;46.396;48.102;2023-03-25T04:41:28;14.92;69.28
75489;HTU21D;64069;46.396;48.102;2023-03-25T04:43:56;15.25;68.74
75489;HTU21D;64069;46.396;48.102;2023-03-25T04:46:23;15.60;67.84
75489;HTU21D;64069;46.396;48.102;2023-03-25T04:48:48;15.88;67.23
75489;HTU21D;64069;46.396;48.102;2023-03-25T04:51:14;16.11;66.65
75489;HTU21D;64069;46.396;48.102;2023-03-25T04:53:40;16.44;65.82
75489;HTU21D;64069;46.396;48.102;2023-03-25T04:56:14;16.67;64.64
75489;HTU21D;64069;46.396;48.102;2023-03-25T04:58:44;17.02;63.79
75489;HTU21D;64069;46.396;48.102;2023-03-25T05:01:19;17.29;62.47
75489;HTU21D;64069;46.396;48.102;2023-03-25T05:03:46;17.44;62.50
75489;HTU21D;64069;46.396;48.102;2023-03-25T05:06:17;17.72;61.60
75489;HTU21D;64069;46.396;48.102;2023-03-25T05:08:43;17.93;60.97
75489;HTU21D;64069;46.396;48.102;2023-03-25T05:11:09;17.99;60.18
75489;HTU21D;64069;46.396;48.102;2023-03-25T05:13:35;18.07;59.62
75489;HTU21D;64069;46.396;48.102;2023-03-25T05:16:01;18.02;59.19
75489;HTU21D;64069;46.396;48.102;2023-03-25T05:18:27;17.97;58.88
75489;HTU21D;64069;46.396;48.102;2023-03-25T05:20:53;18.06;58.41
75489;HTU21D;64069;46.396;48.102;2023-03-25T05:23:20;18.21;58.13
75489;HTU21D;64069;46.396;48.102;2023-03-25T05:25:48;18.56;57.16
75489;HTU21D;64069;46.396;48.102;2023-03-25T05:28:16;18.71;56.73
75489;HTU21D;64069;46.396;48.102;2023-03-25T05:30:44;18.78;55.77
75489;HTU21D;64069;46.396;48.102;2023-03-25T05:33:13;18.84;54.00
75489;HTU21D;64069;46.396;48.102;2023-03-25T05:35:43;18.83;53.95
75489;HTU21D;64069;46.396;48.102;2023-03-25T05:38:09;19.02;53.08
75489;HTU21D;64069;46.396;48.102;2023-03-25T05:40:41;19.18;52.59
75489;HTU21D;64069;46.396;48.102;2023-03-25T05:43:07;19.48;51.77
75489;HTU21D;64069;46.396;48.102;2023-03-25T05:45:33;19.61;51.09
75489;HTU21D;64069;46.396;48.102;2023-03-25T05:48:02;19.71;50.81
75489;HTU21D;64069;46.396;48.102;2023-03-25T05:50:29;19.97;49.91
75489;HTU21D;64069;46.396;48.102;2023-03-25T05:52:55;20.06;49.32
75489;HTU21D;64069;46.396;48.102;2023-03-25T05:55:22;20.12;48.86
75489;HTU21D;64069;46.396;48.102;2023-03-25T05:57:48;20.16;47.99
75489;HTU21D;64069;46.396;48.102;2023-03-25T06:00:17;19.90;46.98
75489;HTU21D;64069;46.396;48.102;2023-03-25T06:02:49;19.76;47.23
75489;HTU21D;64069;46.396;48.102;2023-03-25T06:05:15;19.75;47.02
75489;HTU21D;64069;46.396;48.102;2023-03-25T06:07:45;19.82;46.04
75489;HTU21D;64069;46.396;48.102;2023-03-25T06:10:12;19.85;45.99
75489;HTU21D;64069;46.396;48.102;2023-03-25T06:12:42;19.79;45.60
75489;HTU21D;64069;46.396;48.102;2023-03-25T06:15:09;19.86;45.35
75489;HTU21D;64069;46.396;48.102;2023-03-25T06:17:36;20.07;45.05
75489;HTU21D;64069;46.396;48.102;2023-03-25T06:20:07;20.29;44.29
75489;HTU21D;64069;46.396;48.102;2023-03-25T06:22:42;20.44;43.58
75489;HTU21D;64069;46.396;48.102;2023-03-25T06:25:12;20.61;44.92
75489;HTU21D;64069;46.396;48.102;2023-03-25T06:27:42;20.72;43.88
75489;HTU21D;64069;46.396;48.102;2023-03-25T06:30:10;20.84;43.41
75489;HTU21D;64069;46.396;48.102;2023-03-25T06:32:36;21.11;42.61
75489;HTU21D;64069;46.396;48.102;2023-03-25T06:35:04;21.27;42.07
75489;HTU21D;64069;46.396;48.102;2023-03-25T06:37:32;21.54;41.71
75489;HTU21D;64069;46.396;48.102;2023-03-25T06:40:01;21.91;40.48
75489;HTU21D;64069;46.396;48.102;2023-03-25T06:42:28;21.82;39.67
75489;HTU21D;64069;46.396;48.102;2023-03-25T06:45:14;21.77;39.32
75489;HTU21D;64069;46.396;48.102;2023-03-25T06:47:44;21.82;38.96
75489;HTU21D;64069;46.396;48.102;2023-03-25T06:50:10;22.05;39.03
75489;HTU21D;64069;46.396;48.102;2023-03-25T06:52:36;22.46;38.09
75489;HTU21D;64069;46.396;48.102;2023-03-25T06:55:03;22.53;37.21
75489;HTU21D;64069;46.396;48.102;2023-03-25T06:57:29;22.51;36.90
75489;HTU21D;64069;46.396;48.102;2023-03-25T06:59:55;22.63;36.63
75489;HTU21D;64069;46.396;48.102;2023-03-25T07:02:21;22.79;36.11
75489;HTU21D;64069;46.396;48.102;2023-03-25T07:04:47;22.80;35.73
75489;HTU21D;64069;46.396;48.102;2023-03-25T07:07:13;22.88;35.61
75489;HTU21D;64069;46.396;48.102;2023-03-25T07:09:39;23.06;35.60
75489;HTU21D;64069;46.396;48.102;2023-03-25T07:12:06;23.34;34.76
75489;HTU21D;64069;46.396;48.102;2023-03-25T07:14:32;23.51;34.26
75489;HTU21D;64069;46.396;48.102;2023-03-25T07:16:57;23.72;34.26
75489;HTU21D;64069;46.396;48.102;2023-03-25T07:19:24;23.94;33.86
75489;HTU21D;64069;46.396;48.102;2023-03-25T07:21:50;24.04;32.83
75489;HTU21D;64069;46.396;48.102;2023-03-25T07:24:16;23.97;32.93
75489;HTU21D;64069;46.396;48.102;2023-03-25T07:26:42;23.97;32.44
75489;HTU21D;64069;46.396;48.102;2023-03-25T07:29:09;23.96;32.31
75489;HTU21D;64069;46.396;48.102;2023-03-25T07:31:35;23.84;31.51
75489;HTU21D;64069;46.396;48.102;2023-03-25T07:34:01;23.57;31.55
75489;HTU21D;64069;46.396;48.102;2023-03-25T07:36:27;23.51;31.67
75489;HTU21D;64069;46.396;48.102;2023-03-25T07:38:53;23.46;31.62
75489;HTU21D;64069;46.396;48.102;2023-03-25T07:41:20;23.44;30.55
75489;HTU21D;64069;46.396;48.102;2023-03-25T07:44:01;23.14;30.71
75489;HTU21D;64069;46.396;48.102;2023-03-25T07:46:31;23.09;30.61
75489;HTU21D;64069;46.396;48.102;2023-03-25T07:48:57;23.02;30.05
75489;HTU21D;64069;46.396;48.102;2023-03-25T07:51:23;23.02;30.14
75489;HTU21D;64069;46.396;48.102;2023-03-25T07:53:52;23.21;29.94
75489;HTU21D;64069;46.396;48.102;2023-03-25T07:56:18;23.39;29.48
75489;HTU21D;64069;46.396;48.102;2023-03-25T07:58:44;23.50;29.36
75489;HTU21D;64069;46.396;48.102;2023-03-25T08:01:11;23.46;29.30
75489;HTU21D;64069;46.396;48.102;2023-03-25T08:03:37;23.41;29.28
75489;HTU21D;64069;46.396;48.102;2023-03-25T08:06:04;23.38;29.27
75489;HTU21D;64069;46.396;48.102;2023-03-25T08:08:31;23.34;29.22
75489;HTU21D;64069;46.396;48.102;2023-03-25T08:10:57;23.41;29.32
75489;HTU21D;64069;46.396;48.102;2023-03-25T08:13:24;23.37;29.51
75489;HTU21D;64069;46.396;48.102;2023-03-25T08:15:51;23.35;29.56
75489;HTU21D;64069;46.396;48.102;2023-03-25T08:18:17;23.37;29.50
75489;HTU21D;64069;46.396;48.102;2023-03-25T08:20:43;23.29;29.33
75489;HTU21D;64069;46.396;48.102;2023-03-25T08:23:09;23.16;29.72
75489;HTU21D;64069;46.396;48.102;2023-03-25T08:25:38;23.23;29.55
75489;HTU21D;64069;46.396;48.102;2023-03-25T08:28:05;23.27;29.70
75489;HTU21D;64069;46.396;48.102;2023-03-25T08:30:35;23.32;29.46
75489;HTU21D;64069;46.396;48.102;2023-03-25T08:33:08;23.31;29.56
75489;HTU21D;64069;46.396;48.102;2023-03-25T08:35:36;23.20;29.49
75489;HTU21D;64069;46.396;48.102;2023-03-25T08:38:03;23.15;29.39
75489;HTU21D;64069;46.396;48.102;2023-03-25T08:40:33;23.14;29.19
75489;HTU21D;64069;46.396;48.102;2023-03-25T08:42:59;23.14;28.87
75489;HTU21D;64069;46.396;48.102;2023-03-25T08:45:28;23.09;28.97
75489;HTU21D;64069;46.396;48.102;2023-03-25T08:47:54;23.11;28.52
75489;HTU21D;64069;46.396;48.102;2023-03-25T08:50:20;23.15;28.52
75489;HTU21D;64069;46.396;48.102;2023-03-25T08:52:46;23.22;28.27
75489;HTU21D;64069;46.396;48.102;2023-03-25T08:55:13;23.26;28.23
75489;HTU21D;64069;46.396;48.102;2023-03-25T08:57:41;23.41;27.94
75489;HTU21D;64069;46.396;48.102;2023-03-25T09:00:07;23.41;27.76
75489;HTU21D;64069;46.396;48.102;2023-03-25T09:02:43;23.12;27.62
75489;HTU21D;64069;46.396;48.102;2023-03-25T09:05:11;22.93;27.84
75489;HTU21D;64069;46.396;48.102;2023-03-25T09:07:38;22.95;27.74
75489;HTU21D;64069;46.396;48.102;2023-03-25T09:10:05;23.06;27.64
75489;HTU21D;64069;46.396;48.102;2023-03-25T09:12:32;23.12;27.57
75489;HTU21D;64069;46.396;48.102;2023-03-25T09:14:58;23.12;27.67
75489;HTU21D;64069;46.396;48.102;2023-03-25T09:17:24;23.18;27.78
75489;HTU21D;64069;46.396;48.102;2023-03-25T09:19:50;23.30;27.72
75489;HTU21D;64069;46.396;48.102;2023-03-25T09:22:16;23.32;27.18
75489;HTU21D;64069;46.396;48.102;2023-03-25T09:24:42;23.29;27.12
75489;HTU21D;64069;46.396;48.102;2023-03-25T09:27:08;23.34;27.16
75489;HTU21D;64069;46.396;48.102;2023-03-25T09:29:34;23.41;27.18
75489;HTU21D;64069;46.396;48.102;2023-03-25T09:32:01;23.35;26.90
75489;HTU21D;64069;46.396;48.102;2023-03-25T09:34:27;23.16;27.00
75489;HTU21D;64069;46.396;48.102;2023-03-25T09:36:54;23.09;27.14
75489;HTU21D;64069;46.396;48.102;2023-03-25T09:39:20;23.16;27.14
75489;HTU21D;64069;46.396;48.102;2023-03-25T09:44:52;23.34;26.81
75489;HTU21D;64069;46.396;48.102;2023-03-25T09:47:20;23.38;26.65
75489;HTU21D;64069;46.396;48.102;2023-03-25T09:49:50;23.43;26.14
75489;HTU21D;64069;46.396;48.102;2023-03-25T09:52:26;23.37;26.13
75489;HTU21D;64069;46.396;48.102;2023-03-25T09:55:16;23.27;26.08
75489;HTU21D;64069;46.396;48.102;2023-03-25T09:57:48;23.27;25.90
75489;HTU21D;64069;46.396;48.102;2023-03-25T10:00:19;23.24;25.85
75489;HTU21D;64069;46.396;48.102;2023-03-25T10:03:06;23.26;25.95
75489;HTU21D;64069;46.396;48.102;2023-03-25T10:05:53;23.27;25.69
75489;HTU21D;64069;46.396;48.102;2023-03-25T10:11:11;23.30;25.51
75489;HTU21D;64069;46.396;48.102;2023-03-25T10:13:45;23.35;25.29
75489;HTU21D;64069;46.396;48.102;2023-03-25T10:16:50;23.35;25.33
75489;HTU21D;64069;46.396;48.102;2023-03-25T10:22:22;23.21;25.40
75489;HTU21D;64069;46.396;48.102;2023-03-25T10:24:55;23.11;24.97
75489;HTU21D;64069;46.396;48.102;2023-03-25T10:27:41;23.03;24.67
75489;HTU21D;64069;46.396;48.102;2023-03-25T10:32:51;22.97;24.85
75489;HTU21D;64069;46.396;48.102;2023-03-25T10:35:22;22.95;24.93
75489;HTU21D;64069;46.396;48.102;2023-03-25T10:37:52;22.94;25.04
75489;HTU21D;64069;46.396;48.102;2023-03-25T10:40:47;22.91;25.14
75489;HTU21D;64069;46.396;48.102;2023-03-25T10:43:33;22.81;25.15
75489;HTU21D;64069;46.396;48.102;2023-03-25T10:48:53;22.85;25.28
75489;HTU21D;64069;46.396;48.102;2023-03-25T10:51:21;22.84;25.36
75489;HTU21D;64069;46.396;48.102;2023-03-25T10:53:51;22.82;25.32
75489;HTU21D;64069;46.396;48.102;2023-03-25T10:56:22;22.73;25.52
75489;HTU21D;64069;46.396;48.102;2023-03-25T10:58:54;22.69;25.66
75489;HTU21D;64069;46.396;48.102;2023-03-25T11:01:41;22.65;25.59
75489;HTU21D;64069;46.396;48.102;2023-03-25T11:04:14;22.57;25.71
75489;HTU21D;64069;46.396;48.102;2023-03-25T11:06:46;22.53;25.72
75489;HTU21D;64069;46.396;48.102;2023-03-25T11:09:27;22.53;25.64
75489;HTU21D;64069;46.396;48.102;2023-03-25T11:11:59;22.54;25.67
75489;HTU21D;64069;46.396;48.102;2023-03-25T11:14:27;22.56;25.46
75489;HTU21D;64069;46.396;48.102;2023-03-25T11:16:59;22.55;25.52
75489;HTU21D;64069;46.396;48.102;2023-03-25T11:19:51;22.48;25.42
75489;HTU21D;64069;46.396;48.102;2023-03-25T11:22:21;22.46;25.61
75489;HTU21D;64069;46.396;48.102;2023-03-25T11:24:53;22.46;25.32
75489;HTU21D;64069;46.396;48.102;2023-03-25T11:27:27;22.52;25.52
75489;HTU21D;64069;46.396;48.102;2023-03-25T11:30:03;22.57;25.59
75489;HTU21D;64069;46.396;48.102;2023-03-25T11:32:33;22.68;25.55
75489;HTU21D;64069;46.396;48.102;2023-03-25T11:35:01;22.70;25.49
75489;HTU21D;64069;46.396;48.102;2023-03-25T11:37:36;22.68;25.39
75489;HTU21D;64069;46.396;48.102;2023-03-25T11:40:16;22.67;25.36
75489;HTU21D;64069;46.396;48.102;2023-03-25T11:42:51;22.71;25.24
75489;HTU21D;64069;46.396;48.102;2023-03-25T11:45:20;22.70;25.20
75489;HTU21D;64069;46.396;48.102;2023-03-25T11:47:47;22.72;25.30
75489;HTU21D;64069;46.396;48.102;2023-03-25T11:50:22;22.78;25.03
75489;HTU21D;64069;46.396;48.102;2023-03-25T11:52:54;22.78;25.17
75489;HTU21D;64069;46.396;48.102;2023-03-25T11:55:30;22.71;25.14
75489;HTU21D;64069;46.396;48.102;2023-03-25T11:57:59;22.57;25.48
75489;HTU21D;64069;46.396;48.102;2023-03-25T12:00:36;22.57;25.52
75489;HTU21D;64069;46.396;48.102;2023-03-25T12:03:25;22.58;25.60
75489;HTU21D;64069;46.396;48.102;2023-03-25T12:08:23;22.58;25.74
75489;HTU21D;64069;46.396;48.102;2023-03-25T12:10:57;22.56;25.59
75489;HTU21D;64069;46.396;48.102;2023-03-25T12:19:33;22.50;25.93
75489;HTU21D;64069;46.396;48.102;2023-03-25T12:39:12;22.35;25.87
75489;HTU21D;64069;46.396;48.102;2023-03-25T12:47:38;22.14;26.04
75489;HTU21D;64069;46.396;48.102;2023-03-25T12:58:22;22.08;26.09
75489;HTU21D;64069;46.396;48.102;2023-03-25T13:01:12;22.02;26.21
75489;HTU21D;64069;46.396;48.102;2023-03-25T13:04:02;21.96;26.19
75489;HTU21D;64069;46.396;48.102;2023-03-25T13:07:26;21.91;26.27
75489;HTU21D;64069;46.396;48.102;2023-03-25T13:10:17;21.89;26.39
75489;HTU21D;64069;46.396;48.102;2023-03-25T13:13:01;21.84;26.32
75489;HTU21D;64069;46.396;48.102;2023-03-25T13:15:40;21.81;26.37
75489;HTU21D;64069;46.396;48.102;2023-03-25T13:18:12;21.77;26.36
75489;HTU21D;64069;46.396;48.102;2023-03-25T13:20:43;21.70;26.42
75489;HTU21D;64069;46.396;48.102;2023-03-25T13:23:15;21.64;26.56
75489;HTU21D;64069;46.396;48.102;2023-03-25T13:26:09;21.62;26.70
75489;HTU21D;64069;46.396;48.102;2023-03-25T13:28:40;21.57;26.63
75489;HTU21D;64069;46.396;48.102;2023-03-25T13:31:17;21.49;26.68
75489;HTU21D;64069;46.396;48.102;2023-03-25T13:33:49;21.45;26.83
75489;HTU21D;64069;46.396;48.102;2023-03-25T13:36:29;21.38;26.76
75489;HTU21D;64069;46.396;48.102;2023-03-25T13:38:58;21.32;26.85
75489;HTU21D;64069;46.396;48.102;2023-03-25T13:41:37;21.21;26.89
75489;HTU21D;64069;46.396;48.102;2023-03-25T13:44:25;21.17;27.07
75489;HTU21D;64069;46.396;48.102;2023-03-25T13:47:02;21.11;27.18
75489;HTU21D;64069;46.396;48.102;2023-03-25T13:49:47;21.04;27.33
75489;HTU21D;64069;46.396;48.102;2023-03-25T13:52:16;20.96;27.50
75489;HTU21D;64069;46.396;48.102;2023-03-25T13:54:56;20.88;27.68
75489;HTU21D;64069;46.396;48.102;2023-03-25T14:03:43;20.53;27.97
75489;HTU21D;64069;46.396;48.102;2023-03-25T14:09:19;20.32;28.58
75489;HTU21D;64069;46.396;48.102;2023-03-25T14:12:01;20.21;28.79
75489;HTU21D;64069;46.396;48.102;2023-03-25T14:14:34;20.10;28.95
75489;HTU21D;64069;46.396;48.102;2023-03-25T14:17:03;20.00;29.00
75489;HTU21D;64069;46.396;48.102;2023-03-25T14:19:38;19.89;29.11
75489;HTU21D;64069;46.396;48.102;2023-03-25T14:22:16;19.80;29.38
75489;HTU21D;64069;46.396;48.102;2023-03-25T14:24:44;19.66;29.48
75489;HTU21D;64069;46.396;48.102;2023-03-25T14:27:25;19.60;29.53
75489;HTU21D;64069;46.396;48.102;2023-03-25T14:30:20;19.52;29.72
75489;HTU21D;64069;46.396;48.102;2023-03-25T14:32:47;19.42;29.87
75489;HTU21D;64069;46.396;48.102;2023-03-25T14:43:24;18.93;30.41
75489;HTU21D;64069;46.396;48.102;2023-03-25T14:46:15;18.78;31.09
75489;HTU21D;64069;46.396;48.102;2023-03-25T14:54:31;18.26;31.97
75489;HTU21D;64069;46.396;48.102;2023-03-25T14:57:26;18.19;32.43
75489;HTU21D;64069;46.396;48.102;2023-03-25T15:00:04;18.08;32.80
75489;HTU21D;64069;46.396;48.102;2023-03-25T15:02:40;17.98;33.22
75489;HTU21D;64069;46.396;48.102;2023-03-25T15:05:39;17.77;33.83
75489;HTU21D;64069;46.396;48.102;2023-03-25T15:10:39;17.48;34.76
75489;HTU21D;64069;46.396;48.102;2023-03-25T15:21:09;16.71;36.26
75489;HTU21D;64069;46.396;48.102;2023-03-25T15:23:51;16.52;36.75
75489;HTU21D;64069;46.396;48.102;2023-03-25T15:29:05;16.29;37.23
75489;HTU21D;64069;46.396;48.102;2023-03-25T15:46:40;15.74;38.78
75489;HTU21D;64069;46.396;48.102;2023-03-25T15:59:41;15.41;39.78
75489;HTU21D;64069;46.396;48.102;2023-03-25T16:02:16;15.30;40.32
75489;HTU21D;64069;46.396;48.102;2023-03-25T16:04:51;15.19;40.52
75489;HTU21D;64069;46.396;48.102;2023-03-25T16:07:20;15.14;40.81
75489;HTU21D;64069;46.396;48.102;2023-03-25T16:09:48;15.14;41.01
75489;HTU21D;64069;46.396;48.102;2023-03-25T16:12:20;15.10;41.37
75489;HTU21D;64069;46.396;48.102;2023-03-25T16:14:47;15.03;41.56
75489;HTU21D;64069;46.396;48.102;2023-03-25T16:17:19;14.98;42.01
75489;HTU21D;64069;46.396;48.102;2023-03-25T16:19:51;14.95;42.29
75489;HTU21D;64069;46.396;48.102;2023-03-25T16:22:25;14.92;42.62
75489;HTU21D;64069;46.396;48.102;2023-03-25T16:24:54;14.87;42.87
75489;HTU21D;64069;46.396;48.102;2023-03-25T16:29:55;14.78;43.50
75489;HTU21D;64069;46.396;48.102;2023-03-25T16:32:31;14.73;44.16
75489;HTU21D;64069;46.396;48.102;2023-03-25T16:34:57;14.72;44.35
75489;HTU21D;64069;46.396;48.102;2023-03-25T16:37:27;14.72;44.67
75489;HTU21D;64069;46.396;48.102;2023-03-25T16:39:57;14.66;45.09
75489;HTU21D;64069;46.396;48.102;2023-03-25T16:42:28;14.62;45.49
75489;HTU21D;64069;46.396;48.102;2023-03-25T16:44:57;14.52;45.70
75489;HTU21D;64069;46.396;48.102;2023-03-25T16:47:23;14.41;46.06
75489;HTU21D;64069;46.396;48.102;2023-03-25T16:49:52;14.39;46.31
75489;HTU21D;64069;46.396;48.102;2023-03-25T16:52:26;14.37;46.56
75489;HTU21D;64069;46.396;48.102;2023-03-25T16:57:26;14.32;46.81
75489;HTU21D;64069;46.396;48.102;2023-03-25T16:59:55;14.29;46.83
75489;HTU21D;64069;46.396;48.102;2023-03-25T17:02:27;14.24;47.09
75489;HTU21D;64069;46.396;48.102;2023-03-25T17:04:54;14.18;47.11
75489;HTU21D;64069;46.396;48.102;2023-03-25T17:07:39;14.12;47.31
75489;HTU21D;64069;46.396;48.102;2023-03-25T17:10:21;14.07;47.74
75489;HTU21D;64069;46.396;48.102;2023-03-25T17:13:06;13.99;47.96
75489;HTU21D;64069;46.396;48.102;2023-03-25T17:15:34;13.90;48.06
75489;HTU21D;64069;46.396;48.102;2023-03-25T17:18:02;13.83;48.52
75489;HTU21D;64069;46.396;48.102;2023-03-25T17:20:37;13.77;48.79
75489;HTU21D;64069;46.396;48.102;2023-03-25T17:23:07;13.68;48.95
75489;HTU21D;64069;46.396;48.102;2023-03-25T17:25:50;13.59;49.40
75489;HTU21D;64069;46.396;48.102;2023-03-25T17:28:42;13.51;49.76
75489;HTU21D;64069;46.396;48.102;2023-03-25T17:31:54;13.41;49.97
75489;HTU21D;64069;46.396;48.102;2023-03-25T17:34:22;13.32;50.08
75489;HTU21D;64069;46.396;48.102;2023-03-25T17:36:56;13.20;50.80
75489;HTU21D;64069;46.396;48.102;2023-03-25T17:39:30;13.09;51.19
75489;HTU21D;64069;46.396;48.102;2023-03-25T17:42:06;12.96;51.47
75489;HTU21D;64069;46.396;48.102;2023-03-25T17:44:34;12.82;51.83
75489;HTU21D;64069;46.396;48.102;2023-03-25T17:47:05;12.72;52.15
75489;HTU21D;64069;46.396;48.102;2023-03-25T17:49:32;12.64;52.65
75489;HTU21D;64069;46.396;48.102;2023-03-25T17:51:58;12.58;52.92
75489;HTU21D;64069;46.396;48.102;2023-03-25T17:54:26;12.50;53.28
75489;HTU21D;64069;46.396;48.102;2023-03-25T17:56:52;12.45;53.54
75489;HTU21D;64069;46.396;48.102;2023-03-25T17:59:23;12.38;53.87
75489;HTU21D;64069;46.396;48.102;2023-03-25T18:01:56;12.28;53.98
75489;HTU21D;64069;46.396;48.102;2023-03-25T18:04:22;12.18;54.26
75489;HTU21D;64069;46.396;48.102;2023-03-25T18:06:49;12.07;54.62
75489;HTU21D;64069;46.396;48.102;2023-03-25T18:09:21;11.97;55.20
75489;HTU21D;64069;46.396;48.102;2023-03-25T18:11:54;11.87;55.16
75489;HTU21D;64069;46.396;48.102;2023-03-25T18:14:22;11.77;55.43